Time;durP1;ratioP1;P1;durP2;ratioP2;P2;SDS_P1;SDS_P2;PMS_P1;PMS_P2;Temp;Humidity;BMP_temperature;BMP_pressure;BME280_temperature;BME280_humidity;BME280_pressure;Samples;Min_cycle;Max_cycle;Signal;HPM_P1;HPM_P2
2021/10/23 00:00:26;;;;;;;19.83;16.73;;;9.90;99.90;;;;;;5032229;28;20524;-70
2021/10/23 00:02:52;;;;;;;22.37;17.17;;;10.00;99.90;;;;;;5030006;28;20422;-70
2021/10/23 00:05:17;;;;;;;24.70;16.20;;;10.00;99.90;;;;;;5031977;28;20424;-70
2021/10/23 00:07:43;;;;;;;27.33;16.90;;;9.90;99.90;;;;;;5031724;28;20413;-70
2021/10/23 00:10:09;;;;;;;25.23;16.10;;;10.00;99.90;;;;;;5031860;28;20694;-71
2021/10/23 00:12:34;;;;;;;23.60;15.77;;;10.10;99.90;;;;;;5031417;28;20169;-70
2021/10/23 00:15:00;;;;;;;25.40;16.60;;;10.00;99.90;;;;;;5030890;28;20764;-70
2021/10/23 00:17:26;;;;;;;23.90;15.83;;;10.10;99.90;;;;;;5031389;27;20180;-70
2021/10/23 00:19:51;;;;;;;20.93;16.03;;;10.10;99.90;;;;;;5029804;28;20232;-70
2021/10/23 00:22:17;;;;;;;22.77;16.60;;;10.10;99.90;;;;;;5031618;28;20191;-70
2021/10/23 00:24:43;;;;;;;21.90;16.97;;;10.10;99.90;;;;;;5031528;28;20198;-70
2021/10/23 00:27:08;;;;;;;25.70;17.00;;;10.10;99.90;;;;;;5032627;28;20297;-70
2021/10/23 00:29:34;;;;;;;23.03;16.90;;;10.10;99.90;;;;;;5035817;28;20166;-70
2021/10/23 00:31:59;;;;;;;23.47;16.20;;;10.10;99.90;;;;;;5036703;27;20185;-70
2021/10/23 00:34:25;;;;;;;22.30;17.00;;;10.10;99.90;;;;;;5036396;28;20201;-70
2021/10/23 00:36:50;;;;;;;22.30;17.10;;;10.20;99.90;;;;;;5033793;28;20225;-70
2021/10/23 00:39:16;;;;;;;23.13;16.33;;;10.10;99.90;;;;;;5031345;28;20195;-70
2021/10/23 00:41:41;;;;;;;23.33;17.57;;;10.10;99.90;;;;;;5027772;28;20269;-70
2021/10/23 00:44:35;;;;;;;20.93;16.50;;;10.10;99.90;;;;;;5011146;28;20194;-71
2021/10/23 00:47:03;;;;;;;20.77;16.80;;;10.00;99.90;;;;;;5011658;28;20196;-70
2021/10/23 00:49:29;;;;;;;22.43;15.77;;;10.10;99.90;;;;;;5010830;27;20454;-70
2021/10/23 00:51:57;;;;;;;23.57;17.43;;;10.10;99.90;;;;;;5021367;28;20425;-70
2021/10/23 00:54:23;;;;;;;23.27;16.40;;;10.10;99.90;;;;;;5011238;28;20421;-71
2021/10/23 00:56:49;;;;;;;19.53;15.60;;;10.10;99.90;;;;;;5017698;28;20452;-70
2021/10/23 00:59:14;;;;;;;19.63;15.57;;;10.20;99.90;;;;;;5011414;28;20418;-70
2021/10/23 01:01:40;;;;;;;20.97;15.60;;;10.10;99.90;;;;;;5010886;28;20178;-70
2021/10/23 01:04:05;;;;;;;20.30;15.77;;;10.10;99.90;;;;;;5011438;27;20228;-70
2021/10/23 01:06:31;;;;;;;23.40;15.20;;;10.10;99.90;;;;;;5013260;28;20205;-71
2021/10/23 01:08:58;;;;;;;23.17;15.87;;;10.10;99.90;;;;;;5011783;28;20527;-71
2021/10/23 01:11:26;;;;;;;19.97;15.10;;;10.20;99.90;;;;;;5009525;28;20425;-70
2021/10/23 01:13:52;;;;;;;21.07;15.13;;;10.20;99.90;;;;;;5011949;28;20431;-70
2021/10/23 01:16:17;;;;;;;20.80;14.80;;;10.20;99.90;;;;;;5010811;28;20781;-70
2021/10/23 01:18:44;;;;;;;21.77;15.80;;;10.20;99.90;;;;;;5010829;28;20175;-70
2021/10/23 01:21:10;;;;;;;22.80;15.47;;;10.10;99.90;;;;;;5010731;28;20188;-70
2021/10/23 01:23:36;;;;;;;19.83;16.20;;;10.10;99.90;;;;;;5009814;28;20435;-70
2021/10/23 01:26:02;;;;;;;20.20;15.73;;;10.10;99.90;;;;;;5010560;28;20198;-70
2021/10/23 01:28:28;;;;;;;19.33;14.53;;;10.10;99.90;;;;;;5011094;28;20178;-70
2021/10/23 01:30:56;;;;;;;20.17;15.60;;;10.00;99.90;;;;;;5012042;28;20481;-70
2021/10/23 01:33:21;;;;;;;21.70;15.67;;;10.00;99.90;;;;;;5010708;28;20417;-71
2021/10/23 01:35:47;;;;;;;18.60;15.13;;;10.10;99.90;;;;;;5010615;28;20464;-71
2021/10/23 01:38:13;;;;;;;18.90;15.27;;;10.10;99.90;;;;;;5010873;27;20202;-70
2021/10/23 01:40:38;;;;;;;22.10;15.27;;;10.10;99.90;;;;;;5011047;28;20196;-70
2021/10/23 01:43:04;;;;;;;21.83;14.47;;;10.20;99.90;;;;;;5010719;28;20703;-70
2021/10/23 01:45:31;;;;;;;20.17;15.50;;;10.20;99.90;;;;;;5010184;28;20190;-70
2021/10/23 01:47:57;;;;;;;24.40;15.97;;;10.10;99.90;;;;;;5023110;28;20986;-69
2021/10/23 01:50:25;;;;;;;21.40;15.53;;;10.20;99.90;;;;;;5028702;27;20546;-69
2021/10/23 01:52:51;;;;;;;20.30;14.60;;;10.20;99.90;;;;;;5030624;28;20171;-70
2021/10/23 01:55:17;;;;;;;24.43;16.43;;;10.20;99.90;;;;;;5030076;28;20424;-69
2021/10/23 01:57:43;;;;;;;22.63;15.27;;;10.20;99.90;;;;;;5030256;28;20424;-69
2021/10/23 02:00:10;;;;;;;21.63;16.33;;;10.10;99.90;;;;;;5030550;28;20178;-69
2021/10/23 02:02:36;;;;;;;21.30;15.90;;;10.10;99.90;;;;;;5030007;27;20465;-69
2021/10/23 02:05:02;;;;;;;24.23;15.47;;;10.20;99.90;;;;;;5014883;28;20478;-69
2021/10/23 02:07:27;;;;;;;21.73;16.47;;;10.20;99.90;;;;;;5010972;28;20179;-69
2021/10/23 02:09:53;;;;;;;21.13;15.00;;;10.20;99.90;;;;;;5018224;28;20429;-69
2021/10/23 02:12:18;;;;;;;23.47;17.07;;;10.20;99.90;;;;;;5010377;28;20506;-71
2021/10/23 02:14:44;;;;;;;22.00;15.10;;;10.10;99.90;;;;;;5010063;28;20183;-70
2021/10/23 02:17:10;;;;;;;20.30;15.80;;;10.00;99.90;;;;;;5010153;28;20195;-69
2021/10/23 02:19:35;;;;;;;21.87;16.00;;;9.90;99.90;;;;;;5010255;28;20531;-70
2021/10/23 02:22:01;;;;;;;24.63;17.00;;;9.90;99.90;;;;;;5010881;28;20183;-70
2021/10/23 02:24:26;;;;;;;22.63;15.40;;;9.90;99.90;;;;;;5010061;28;20215;-69
2021/10/23 02:26:52;;;;;;;22.43;16.00;;;9.90;99.90;;;;;;5009847;27;20708;-70
2021/10/23 02:29:17;;;;;;;20.93;15.67;;;10.00;99.90;;;;;;5010440;28;20267;-69
2021/10/23 02:31:43;;;;;;;22.87;15.87;;;10.00;99.90;;;;;;5010537;28;20273;-70
2021/10/23 02:34:09;;;;;;;25.73;15.93;;;10.10;99.90;;;;;;5017857;28;20259;-70
2021/10/23 02:36:34;;;;;;;19.37;14.07;;;10.10;99.90;;;;;;5010418;28;20191;-70
2021/10/23 02:39:00;;;;;;;22.70;16.60;;;10.10;99.90;;;;;;5029391;27;20203;-70
2021/10/23 02:41:26;;;;;;;24.50;14.93;;;10.00;99.90;;;;;;5032645;28;20182;-70
2021/10/23 02:43:52;;;;;;;25.40;16.10;;;10.00;99.90;;;;;;5032815;28;20198;-69
2021/10/23 02:46:19;;;;;;;23.87;15.83;;;10.00;99.90;;;;;;5033360;28;20902;-70
2021/10/23 02:48:45;;;;;;;23.07;16.63;;;10.10;99.90;;;;;;5031462;27;20937;-70
2021/10/23 02:51:11;;;;;;;21.00;15.33;;;10.10;99.90;;;;;;5024848;28;20553;-69
2021/10/23 02:53:36;;;;;;;24.77;17.50;;;10.10;99.90;;;;;;5031175;28;20453;-70
2021/10/23 02:56:02;;;;;;;29.07;17.07;;;10.10;99.90;;;;;;5021821;28;20211;-69
2021/10/23 02:58:28;;;;;;;24.10;17.30;;;10.10;99.90;;;;;;5012877;28;20262;-69
2021/10/23 03:00:54;;;;;;;22.50;16.43;;;10.10;99.90;;;;;;5012899;28;20675;-70
2021/10/23 03:03:20;;;;;;;21.70;16.30;;;10.10;99.90;;;;;;5012960;28;20545;-70
2021/10/23 03:05:47;;;;;;;22.43;16.07;;;10.00;99.90;;;;;;5012728;27;20222;-69
2021/10/23 03:08:13;;;;;;;24.10;16.60;;;9.90;99.90;;;;;;5012745;28;20172;-70
2021/10/23 03:10:38;;;;;;;28.17;18.50;;;10.00;99.90;;;;;;5012557;28;20419;-69
2021/10/23 03:13:04;;;;;;;27.20;18.37;;;9.90;99.90;;;;;;5013942;28;20433;-70
2021/10/23 03:15:29;;;;;;;29.13;17.10;;;10.00;99.90;;;;;;5012409;28;20560;-70
2021/10/23 03:17:55;;;;;;;29.63;18.10;;;10.00;99.90;;;;;;5012994;28;20667;-70
2021/10/23 03:20:20;;;;;;;27.70;18.03;;;10.00;99.90;;;;;;5012693;27;20186;-70
2021/10/23 03:22:46;;;;;;;29.97;19.30;;;10.00;99.90;;;;;;5012919;28;20152;-69
2021/10/23 03:25:11;;;;;;;29.60;18.67;;;10.00;99.90;;;;;;5012269;28;20245;-70
2021/10/23 03:27:38;;;;;;;26.57;18.50;;;10.00;99.90;;;;;;5013335;28;20623;-70
2021/10/23 03:30:05;;;;;;;30.23;18.27;;;10.00;99.90;;;;;;5023273;28;20206;-69
2021/10/23 03:32:30;;;;;;;30.17;19.63;;;10.00;99.90;;;;;;5017901;28;20440;-69
2021/10/23 03:34:59;;;;;;;29.03;19.00;;;10.10;99.90;;;;;;5016254;28;20418;-70
2021/10/23 03:37:31;;;;;;;28.60;18.03;;;10.10;99.90;;;;;;5016534;28;20184;-69
2021/10/23 03:39:58;;;;;;;30.80;20.17;;;10.20;99.90;;;;;;5014466;28;20414;-69
2021/10/23 03:42:24;;;;;;;29.40;19.00;;;10.20;99.90;;;;;;5017553;28;20508;-70
2021/10/23 03:44:50;;;;;;;28.47;19.17;;;10.10;99.90;;;;;;5017126;27;20569;-70
2021/10/23 03:47:16;;;;;;;30.30;21.27;;;10.10;99.90;;;;;;5013812;28;20256;-70
2021/10/23 03:49:46;;;;;;;32.23;20.27;;;10.10;99.90;;;;;;5013403;28;20188;-69
2021/10/23 03:52:12;;;;;;;27.53;19.57;;;10.10;99.90;;;;;;5016609;28;20926;-70
2021/10/23 03:54:39;;;;;;;26.80;18.40;;;10.10;99.90;;;;;;5017209;27;20467;-70
2021/10/23 03:57:04;;;;;;;33.03;19.77;;;10.10;99.90;;;;;;5021974;28;20442;-70
2021/10/23 03:59:31;;;;;;;28.07;18.77;;;10.00;99.90;;;;;;5031985;28;20417;-69
2021/10/23 04:01:56;;;;;;;26.70;20.03;;;10.00;99.90;;;;;;5032907;28;20212;-69
2021/10/23 04:04:22;;;;;;;29.60;20.27;;;9.90;99.90;;;;;;5031956;28;20462;-69
2021/10/23 04:06:48;;;;;;;31.97;19.00;;;9.80;99.90;;;;;;5032074;28;20186;-70
2021/10/23 04:09:14;;;;;;;28.30;19.60;;;9.80;99.90;;;;;;5027863;28;20197;-70
2021/10/23 04:11:39;;;;;;;31.03;20.50;;;9.80;99.90;;;;;;5015687;28;20426;-69
2021/10/23 04:14:05;;;;;;;29.63;20.07;;;9.80;99.90;;;;;;5018187;28;20187;-70
2021/10/23 04:16:30;;;;;;;30.70;19.93;;;9.60;99.90;;;;;;5031664;28;20753;-69
2021/10/23 04:18:56;;;;;;;30.10;19.50;;;9.70;99.90;;;;;;5029502;27;20202;-70
2021/10/23 04:21:23;;;;;;;28.40;18.70;;;9.70;99.90;;;;;;5031466;28;20264;-70
2021/10/23 04:23:48;;;;;;;28.53;18.90;;;9.80;99.90;;;;;;5031552;28;20202;-69
2021/10/23 04:26:14;;;;;;;27.60;18.30;;;9.80;99.90;;;;;;5031338;28;20430;-69
2021/10/23 04:28:39;;;;;;;29.27;19.10;;;9.80;99.90;;;;;;5029502;28;20167;-69
2021/10/23 04:31:05;;;;;;;30.60;18.70;;;9.70;99.90;;;;;;5031336;28;20167;-70
2021/10/23 04:33:30;;;;;;;28.23;18.37;;;9.70;99.90;;;;;;5031076;28;20166;-70
2021/10/23 04:35:56;;;;;;;25.83;17.47;;;9.60;99.90;;;;;;5031703;28;20191;-70
2021/10/23 04:38:22;;;;;;;25.43;17.37;;;9.60;99.90;;;;;;5031074;28;20634;-69
2021/10/23 04:40:47;;;;;;;26.30;17.57;;;9.60;99.90;;;;;;5015947;28;20180;-70
2021/10/23 04:43:13;;;;;;;29.67;18.57;;;9.60;99.90;;;;;;5026682;27;20238;-70
2021/10/23 04:45:41;;;;;;;23.77;17.00;;;9.50;99.90;;;;;;5031114;28;20281;-70
2021/10/23 04:48:07;;;;;;;24.70;16.80;;;9.30;99.90;;;;;;5031029;28;20634;-69
2021/10/23 04:50:32;;;;;;;27.33;18.13;;;9.20;99.90;;;;;;5031644;28;20460;-69
2021/10/23 04:52:58;;;;;;;32.47;19.60;;;9.20;99.90;;;;;;5028186;28;20228;-70
2021/10/23 04:55:24;;;;;;;29.17;19.70;;;9.20;99.90;;;;;;5030771;28;20551;-69
2021/10/23 04:57:49;;;;;;;27.40;18.60;;;9.30;99.90;;;;;;5031503;28;20623;-70
2021/10/23 05:00:15;;;;;;;25.63;18.73;;;9.30;99.90;;;;;;5030806;28;20170;-69
2021/10/23 05:02:41;;;;;;;33.43;19.13;;;9.30;99.90;;;;;;5028871;27;20271;-69
2021/10/23 05:05:07;;;;;;;27.27;18.77;;;9.30;99.90;;;;;;5031022;28;20519;-70
2021/10/23 05:07:32;;;;;;;31.67;20.53;;;9.30;99.90;;;;;;5031004;28;20467;-70
2021/10/23 05:09:58;;;;;;;27.93;19.50;;;9.30;99.90;;;;;;5031010;28;20211;-69
2021/10/23 05:12:23;;;;;;;27.03;17.50;;;9.30;99.90;;;;;;5029848;28;20167;-69
2021/10/23 05:14:49;;;;;;;27.50;18.60;;;9.20;99.90;;;;;;5029287;28;20186;-69
2021/10/23 05:17:14;;;;;;;35.80;20.40;;;9.20;99.90;;;;;;5031246;28;20207;-69
2021/10/23 05:19:40;;;;;;;27.30;19.00;;;9.20;99.90;;;;;;5030730;27;20198;-70
2021/10/23 05:22:06;;;;;;;29.40;19.90;;;9.20;99.90;;;;;;5036201;28;20186;-69
2021/10/23 05:24:32;;;;;;;28.47;17.80;;;9.20;99.90;;;;;;5031417;28;20295;-69
2021/10/23 05:26:57;;;;;;;27.00;17.17;;;9.20;99.90;;;;;;5031067;28;20945;-70
2021/10/23 05:29:23;;;;;;;34.13;18.70;;;9.30;99.90;;;;;;5030765;28;20178;-70
2021/10/23 05:31:48;;;;;;;26.37;17.37;;;9.30;99.90;;;;;;5030892;28;20232;-69
2021/10/23 05:34:14;;;;;;;27.30;16.17;;;9.40;99.90;;;;;;5030302;27;20588;-69
2021/10/23 05:36:39;;;;;;;29.87;18.70;;;9.40;99.90;;;;;;5028566;28;20572;-70
2021/10/23 05:39:05;;;;;;;31.77;18.07;;;9.40;99.90;;;;;;5030399;28;20186;-70
2021/10/23 05:41:30;;;;;;;29.70;17.47;;;9.50;99.90;;;;;;5028918;28;20203;-69
2021/10/23 05:43:56;;;;;;;28.30;16.93;;;9.60;99.90;;;;;;5030025;28;20269;-70
2021/10/23 05:46:21;;;;;;;28.80;16.87;;;9.60;99.90;;;;;;5036526;28;20182;-70
2021/10/23 05:48:47;;;;;;;31.13;17.53;;;9.70;99.90;;;;;;5031809;28;20200;-71
2021/10/23 05:51:13;;;;;;;29.70;17.47;;;9.70;99.90;;;;;;5030828;28;20208;-70
2021/10/23 05:53:39;;;;;;;27.90;18.17;;;9.70;99.90;;;;;;5028716;28;20670;-70
2021/10/23 05:56:05;;;;;;;27.80;16.93;;;9.60;99.90;;;;;;5030249;28;20437;-69
2021/10/23 05:58:30;;;;;;;28.43;18.20;;;9.60;99.90;;;;;;5030068;27;20709;-69
2021/10/23 06:01:00;;;;;;;34.70;19.63;;;9.60;99.90;;;;;;5030611;28;20421;-70
2021/10/23 06:03:26;;;;;;;35.20;19.57;;;9.60;99.90;;;;;;5028075;28;20201;-70
2021/10/23 06:05:52;;;;;;;28.07;17.40;;;9.60;99.90;;;;;;5029945;28;20444;-70
2021/10/23 06:08:18;;;;;;;28.77;17.50;;;9.60;99.90;;;;;;5029983;28;20406;-69
2021/10/23 06:10:43;;;;;;;32.53;18.10;;;9.50;99.90;;;;;;5022535;28;20271;-70
2021/10/23 06:13:10;;;;;;;31.60;17.33;;;9.50;99.90;;;;;;5026330;28;20199;-69
2021/10/23 06:15:36;;;;;;;38.50;19.60;;;9.50;99.90;;;;;;5033628;28;20198;-70
2021/10/23 06:18:03;;;;;;;28.57;16.73;;;9.50;99.90;;;;;;5033491;28;20765;-69
2021/10/23 06:20:28;;;;;;;28.60;17.80;;;9.40;99.90;;;;;;5029106;27;20186;-70
2021/10/23 06:22:54;;;;;;;36.13;18.20;;;9.40;99.90;;;;;;5013865;28;20425;-70
2021/10/23 06:25:21;;;;;;;30.77;17.87;;;9.40;99.90;;;;;;5031256;28;20221;-70
2021/10/23 06:27:47;;;;;;;32.53;18.10;;;9.40;99.90;;;;;;5033950;28;20167;-70
2021/10/23 06:30:13;;;;;;;30.00;19.20;;;9.40;99.90;;;;;;5023236;28;20511;-69
2021/10/23 06:32:50;;;;;;;32.17;20.70;;;9.40;99.90;;;;;;5025219;27;20536;-70
2021/10/23 06:35:16;;;;;;;29.60;19.17;;;9.40;99.90;;;;;;5018923;28;20547;-69
2021/10/23 06:37:42;;;;;;;28.40;19.03;;;9.40;99.90;;;;;;5013703;28;20483;-69
2021/10/23 06:40:08;;;;;;;28.70;17.50;;;9.50;99.90;;;;;;5021438;28;20923;-69
2021/10/23 06:42:34;;;;;;;30.00;18.13;;;9.50;99.90;;;;;;5016963;27;20482;-70
2021/10/23 06:45:00;;;;;;;26.07;16.70;;;9.50;99.90;;;;;;5028624;28;20552;-69
2021/10/23 06:47:25;;;;;;;30.53;18.90;;;9.50;99.90;;;;;;5029626;28;20183;-69
2021/10/23 06:49:51;;;;;;;28.83;17.50;;;9.40;99.90;;;;;;5013730;28;20194;-70
2021/10/23 06:52:17;;;;;;;26.30;16.73;;;9.50;99.90;;;;;;5023426;27;20189;-69
2021/10/23 06:54:43;;;;;;;31.83;20.97;;;9.50;99.90;;;;;;5022074;28;20444;-70
2021/10/23 06:57:09;;;;;;;33.17;19.10;;;9.40;99.90;;;;;;5024729;28;20442;-70
2021/10/23 06:59:34;;;;;;;25.63;16.23;;;9.40;99.90;;;;;;5019912;28;20421;-70
2021/10/23 07:02:00;;;;;;;27.63;17.00;;;9.50;99.90;;;;;;5018470;27;20289;-71
2021/10/23 07:04:25;;;;;;;30.53;18.40;;;9.50;99.90;;;;;;5023120;28;20202;-71
2021/10/23 07:06:51;;;;;;;35.80;18.47;;;9.50;99.90;;;;;;5017953;28;20656;-70
2021/10/23 07:09:18;;;;;;;27.50;17.20;;;9.60;99.90;;;;;;5023107;28;20623;-71
2021/10/23 07:11:44;;;;;;;27.17;17.33;;;9.60;99.90;;;;;;5021580;27;20223;-71
2021/10/23 07:14:10;;;;;;;25.03;17.27;;;9.60;99.90;;;;;;5028201;28;20429;-70
2021/10/23 07:16:35;;;;;;;26.20;17.60;;;9.60;99.90;;;;;;5032259;28;20198;-70
2021/10/23 07:19:01;;;;;;;23.63;16.57;;;9.60;99.90;;;;;;5032661;28;20512;-70
2021/10/23 07:21:26;;;;;;;27.57;16.63;;;9.60;99.90;;;;;;5033061;28;20527;-70
2021/10/23 07:23:53;;;;;;;24.70;17.17;;;9.60;99.90;;;;;;5030862;28;20553;-71
2021/10/23 07:26:20;;;;;;;26.03;17.47;;;9.60;99.90;;;;;;5025603;27;20214;-71
2021/10/23 07:28:46;;;;;;;24.47;17.27;;;9.60;99.90;;;;;;5015625;28;20883;-70
2021/10/23 07:31:12;;;;;;;30.73;18.53;;;9.60;99.90;;;;;;5013464;28;20411;-70
2021/10/23 07:33:37;;;;;;;25.13;15.60;;;9.60;99.90;;;;;;5014726;28;20420;-68
2021/10/23 07:36:03;;;;;;;27.93;17.40;;;9.60;99.90;;;;;;5016111;28;20441;-69
2021/10/23 07:38:29;;;;;;;23.00;16.50;;;9.60;99.90;;;;;;5013452;28;20233;-69
2021/10/23 07:40:56;;;;;;;27.70;16.67;;;9.70;99.90;;;;;;5016482;27;20269;-69
2021/10/23 07:43:21;;;;;;;24.57;17.00;;;9.70;99.90;;;;;;5013631;28;20242;-70
2021/10/23 07:45:48;;;;;;;22.60;16.23;;;9.70;99.90;;;;;;5024300;28;20487;-69
2021/10/23 07:48:18;;;;;;;26.27;18.30;;;9.70;99.90;;;;;;5020905;28;20183;-70
2021/10/23 07:50:48;;;;;;;27.80;17.97;;;9.70;99.90;;;;;;5019913;27;20584;-69
2021/10/23 07:53:17;;;;;;;26.80;16.90;;;9.70;99.90;;;;;;5009991;27;20467;-69
2021/10/23 07:55:43;;;;;;;30.03;17.80;;;9.80;99.90;;;;;;5062197;27;20465;-70
2021/10/23 07:58:08;;;;;;;28.43;18.50;;;9.80;99.90;;;;;;5037967;27;20506;-69
2021/10/23 08:00:34;;;;;;;27.10;16.60;;;9.80;99.90;;;;;;5098657;27;20240;-70
2021/10/23 08:03:04;;;;;;;30.13;17.57;;;9.80;99.90;;;;;;5101322;27;20206;-70
2021/10/23 08:05:35;;;;;;;27.87;17.93;;;9.80;99.90;;;;;;5098520;27;20441;-68
2021/10/23 08:08:02;;;;;;;29.00;16.20;;;9.80;99.90;;;;;;5025680;27;20927;-71
2021/10/23 08:10:29;;;;;;;27.90;16.60;;;9.80;99.90;;;;;;5022362;27;20462;-70
2021/10/23 08:12:56;;;;;;;26.43;16.23;;;9.90;99.90;;;;;;5028610;27;20442;-70
2021/10/23 08:15:23;;;;;;;24.87;17.00;;;10.00;99.90;;;;;;5018141;28;20439;-73
2021/10/23 08:17:49;;;;;;;27.07;16.87;;;10.00;99.90;;;;;;5015897;27;20442;-70
2021/10/23 08:20:14;;;;;;;28.03;16.73;;;10.10;99.90;;;;;;5029203;28;20881;-70
2021/10/23 08:22:41;;;;;;;23.30;16.97;;;10.20;99.90;;;;;;5028951;27;20194;-70
2021/10/23 08:25:09;;;;;;;22.80;15.10;;;10.20;99.90;;;;;;5012336;27;20227;-70
2021/10/23 08:27:46;;;;;;;24.23;15.67;;;10.20;99.90;;;;;;5010689;28;20787;-70
2021/10/23 08:30:14;;;;;;;23.10;14.77;;;10.30;99.90;;;;;;5029233;28;20498;-71
2021/10/23 08:32:42;;;;;;;22.90;15.63;;;10.30;99.90;;;;;;5028056;28;20456;-71
2021/10/23 08:35:11;;;;;;;21.67;14.93;;;10.30;99.90;;;;;;5019006;27;20494;-71
2021/10/23 08:37:38;;;;;;;24.43;16.23;;;10.30;99.90;;;;;;5018945;28;20461;-71
2021/10/23 08:40:05;;;;;;;29.53;16.60;;;10.40;99.90;;;;;;5017696;27;20484;-71
2021/10/23 08:42:31;;;;;;;22.67;15.67;;;10.40;99.90;;;;;;5011028;28;20549;-70
2021/10/23 08:45:00;;;;;;;23.03;16.27;;;10.50;99.90;;;;;;5031711;27;20486;-71
2021/10/23 08:47:27;;;;;;;24.13;15.47;;;10.60;99.90;;;;;;5005604;28;20529;-70
2021/10/23 08:49:56;;;;;;;21.37;15.87;;;10.70;99.90;;;;;;5006039;27;20474;-70
2021/10/23 08:52:21;;;;;;;21.90;16.07;;;10.70;99.90;;;;;;5018982;28;20553;-72
2021/10/23 08:54:48;;;;;;;22.83;14.63;;;10.70;99.90;;;;;;5029016;27;20559;-71
2021/10/23 08:57:13;;;;;;;22.17;14.70;;;10.70;99.90;;;;;;5038215;28;20202;-70
2021/10/23 08:59:40;;;;;;;24.30;14.83;;;10.80;99.90;;;;;;5033924;27;20829;-71
2021/10/23 09:02:07;;;;;;;21.90;15.80;;;10.80;99.90;;;;;;5031452;28;20678;-70
2021/10/23 09:04:32;;;;;;;24.30;13.80;;;10.80;99.90;;;;;;5023672;27;20491;-70
2021/10/23 09:07:12;;;;;;;22.10;14.10;;;10.80;99.90;;;;;;5019852;28;20941;-71
2021/10/23 09:09:54;;;;;;;25.37;15.40;;;10.90;99.90;;;;;;5005258;27;20344;-71
2021/10/23 09:12:22;;;;;;;27.07;16.30;;;10.80;99.90;;;;;;5005184;27;20461;-70
2021/10/23 09:14:57;;;;;;;20.33;14.43;;;10.80;99.90;;;;;;5007746;27;20804;-71
2021/10/23 09:17:23;;;;;;;28.90;14.63;;;10.90;99.90;;;;;;5012701;28;20544;-71
2021/10/23 09:19:50;;;;;;;20.53;14.27;;;11.00;99.90;;;;;;5005495;27;20573;-70
2021/10/23 09:22:26;;;;;;;23.20;16.57;;;11.10;99.90;;;;;;5005031;28;20431;-71
2021/10/23 09:25:07;;;;;;;23.33;14.70;;;11.10;99.90;;;;;;5011811;27;20649;-72
2021/10/23 09:27:32;;;;;;;19.47;14.80;;;11.20;99.90;;;;;;5017763;28;20853;-70
2021/10/23 09:29:59;;;;;;;21.20;14.90;;;11.20;99.90;;;;;;5014665;27;20479;-71
2021/10/23 09:32:32;;;;;;;22.03;14.90;;;11.30;99.90;;;;;;5006677;28;20207;-71
2021/10/23 09:35:10;;;;;;;21.67;13.90;;;11.50;99.90;;;;;;5010783;27;20473;-71
2021/10/23 09:37:35;;;;;;;17.57;12.73;;;11.50;99.90;;;;;;5004332;28;20454;-71
2021/10/23 09:40:06;;;;;;;19.20;14.03;;;11.60;99.90;;;;;;5005211;27;20465;-71
2021/10/23 09:42:32;;;;;;;21.30;13.73;;;11.70;99.90;;;;;;5021158;27;20283;-71
2021/10/23 09:45:04;;;;;;;16.87;12.40;;;11.80;99.90;;;;;;5030494;27;20493;-70
2021/10/23 09:47:36;;;;;;;18.30;12.70;;;11.90;99.90;;;;;;5044832;27;20204;-71
2021/10/23 09:50:12;;;;;;;20.40;12.00;;;11.90;99.90;;;;;;5048261;27;20472;-70
2021/10/23 09:52:55;;;;;;;17.57;11.20;;;12.00;99.90;;;;;;5017526;28;20454;-71
2021/10/23 09:55:21;;;;;;;15.63;10.50;;;12.20;99.90;;;;;;5007288;27;20511;-70
2021/10/23 09:58:10;;;;;;;16.63;10.83;;;12.30;99.90;;;;;;5008758;28;20465;-70
2021/10/23 10:00:36;;;;;;;16.33;10.30;;;12.40;99.90;;;;;;5008857;27;20903;-71
2021/10/23 10:03:02;;;;;;;18.07;10.00;;;12.60;99.90;;;;;;5008180;27;20476;-70
2021/10/23 10:05:30;;;;;;;17.47;11.53;;;12.70;99.90;;;;;;5007778;27;20305;-71
2021/10/23 10:07:56;;;;;;;15.67;10.50;;;12.80;99.90;;;;;;5013464;28;20204;-70
2021/10/23 10:10:22;;;;;;;13.70;10.33;;;12.80;99.90;;;;;;5015149;27;20740;-70
2021/10/23 10:12:48;;;;;;;15.83;10.17;;;13.00;99.90;;;;;;5015266;27;20464;-70
2021/10/23 10:15:14;;;;;;;12.87;9.17;;;13.10;99.90;;;;;;5055276;27;20237;-71
2021/10/23 10:17:41;;;;;;;10.80;8.30;;;13.10;99.90;;;;;;5122422;27;20464;-71
2021/10/23 10:20:11;;;;;;;14.67;7.30;;;13.20;99.90;;;;;;5048983;27;20863;-71
2021/10/23 10:22:49;;;;;;;10.20;7.90;;;13.30;99.90;;;;;;5057220;27;20486;-72
2021/10/23 10:25:27;;;;;;;12.73;8.93;;;13.40;99.90;;;;;;5011371;27;20481;-71
2021/10/23 10:27:54;;;;;;;11.50;8.00;;;13.30;99.90;;;;;;5010285;28;20399;-71
2021/10/23 10:30:24;;;;;;;11.80;8.73;;;13.30;99.90;;;;;;5010202;28;20426;-73
2021/10/23 10:32:50;;;;;;;16.10;8.80;;;13.20;99.90;;;;;;5009467;28;20411;-70
2021/10/23 10:35:55;;;;;;;9.23;7.40;;;13.20;99.90;;;;;;5027749;28;20445;-71
2021/10/23 10:44:14;;;;;;;8.17;5.90;;;12.80;99.90;;;;;;5009312;28;20462;-69
2021/10/23 10:47:03;;;;;;;8.83;5.77;;;12.70;99.90;;;;;;5009534;28;20430;-71
2021/10/23 10:49:50;;;;;;;9.93;5.97;;;12.50;99.90;;;;;;5042693;28;20433;-71
2021/10/23 10:52:41;;;;;;;8.07;5.77;;;12.60;99.90;;;;;;5041108;28;20881;-69
2021/10/23 10:55:11;;;;;;;7.17;5.23;;;12.80;99.90;;;;;;5009308;28;20417;-70
2021/10/23 10:57:56;;;;;;;10.93;4.90;;;12.90;99.90;;;;;;5009118;27;20545;-70
2021/10/23 11:00:22;;;;;;;11.50;4.93;;;13.00;99.90;;;;;;5009292;28;20421;-70
2021/10/23 11:02:48;;;;;;;9.30;5.83;;;13.00;99.90;;;;;;5009773;28;20430;-70
2021/10/23 11:05:20;;;;;;;12.73;6.60;;;13.10;99.90;;;;;;5008961;28;20466;-69
2021/10/23 11:08:03;;;;;;;9.47;6.10;;;13.10;99.90;;;;;;5008803;27;20187;-70
2021/10/23 11:11:00;;;;;;;10.90;5.17;;;13.10;99.90;;;;;;5008835;28;20540;-70
2021/10/23 11:13:30;;;;;;;7.70;5.40;;;13.20;99.90;;;;;;5009978;28;20417;-71
2021/10/23 11:15:56;;;;;;;6.50;5.23;;;13.10;99.90;;;;;;5009160;28;20430;-70
2021/10/23 11:18:22;;;;;;;8.97;5.10;;;13.00;99.90;;;;;;5008870;28;20421;-70
2021/10/23 11:20:49;;;;;;;9.17;6.77;;;13.00;99.90;;;;;;5009621;28;20942;-71
2021/10/23 11:23:22;;;;;;;9.90;5.77;;;13.10;99.90;;;;;;5035456;28;20805;-71
2021/10/23 11:25:51;;;;;;;7.00;5.40;;;13.10;99.90;;;;;;5013560;28;20529;-71
2021/10/23 11:28:17;;;;;;;9.80;5.87;;;13.20;99.90;;;;;;5013765;27;20798;-71
2021/10/23 11:30:43;;;;;;;8.10;5.40;;;13.30;99.90;;;;;;5024440;28;20425;-71
2021/10/23 11:33:12;;;;;;;10.07;5.60;;;13.30;99.90;;;;;;5025624;28;20169;-70
2021/10/23 11:35:42;;;;;;;10.23;6.40;;;13.20;99.90;;;;;;5009250;28;20867;-70
2021/10/23 11:38:17;;;;;;;8.60;6.03;;;13.30;99.90;;;;;;5008808;28;20402;-70
2021/10/23 11:40:43;;;;;;;9.27;5.10;;;13.20;99.90;;;;;;5008356;28;20778;-70
2021/10/23 11:43:18;;;;;;;12.70;6.30;;;13.30;99.90;;;;;;5008391;28;20407;-71
2021/10/23 11:45:45;;;;;;;10.10;6.40;;;13.40;99.90;;;;;;5008687;28;20499;-71
2021/10/23 11:48:12;;;;;;;9.03;5.47;;;13.30;99.90;;;;;;5009010;28;20471;-70
2021/10/23 11:50:41;;;;;;;6.83;5.40;;;13.50;99.90;;;;;;5010244;28;20413;-71
2021/10/23 11:53:23;;;;;;;6.80;4.90;;;13.50;99.90;;;;;;5017902;28;20471;-70
2021/10/23 11:56:05;;;;;;;9.60;4.90;;;13.60;99.90;;;;;;5028466;28;20452;-69
2021/10/23 11:58:34;;;;;;;7.07;4.00;;;13.70;99.90;;;;;;5028371;27;20430;-70
2021/10/23 12:01:04;;;;;;;7.17;4.03;;;13.70;99.90;;;;;;5028272;28;20406;-71
2021/10/23 12:03:41;;;;;;;6.87;4.30;;;13.70;99.90;;;;;;5027456;28;20538;-71
2021/10/23 12:06:26;;;;;;;6.17;3.17;;;13.70;99.90;;;;;;5027029;28;20560;-71
2021/10/23 12:08:56;;;;;;;9.03;3.67;;;13.70;99.90;;;;;;5028137;28;20410;-71
2021/10/23 12:11:26;;;;;;;5.47;3.90;;;13.80;99.90;;;;;;5027458;28;20459;-71
2021/10/23 12:14:01;;;;;;;7.90;4.13;;;13.80;99.70;;;;;;5027838;28;20500;-70
2021/10/23 12:17:00;;;;;;;3.93;3.13;;;13.80;99.90;;;;;;5034454;27;20550;-70
2021/10/23 12:19:37;;;;;;;4.30;2.60;;;13.90;99.90;;;;;;4965008;28;20917;-71
2021/10/23 12:22:05;;;;;;;5.77;3.03;;;14.00;99.50;;;;;;4962681;28;20435;-70
2021/10/23 12:24:33;;;;;;;7.80;2.77;;;14.00;97.70;;;;;;4946218;29;20479;-70
2021/10/23 12:27:31;;;;;;;6.00;2.20;;;14.00;96.30;;;;;;4934052;29;20508;-69
2021/10/23 12:29:59;;;;;;;6.83;2.23;;;14.00;96.00;;;;;;4928432;29;20523;-70
2021/10/23 12:32:27;;;;;;;4.43;2.20;;;13.90;96.00;;;;;;4927482;29;20531;-71
2021/10/23 12:34:53;;;;;;;3.50;2.50;;;13.90;95.60;;;;;;4943512;29;20823;-71
2021/10/23 12:37:27;;;;;;;4.47;2.40;;;13.90;95.20;;;;;;4954544;28;20421;-71
2021/10/23 12:40:21;;;;;;;5.60;2.20;;;13.90;95.10;;;;;;4965963;28;20530;-71
2021/10/23 12:43:08;;;;;;;3.83;2.17;;;13.70;94.20;;;;;;4943012;28;20438;-71